Flight Track Log - Related Links

Times and Time Zones

All times are in EDT time to prevent confusion due to time zone crossing. See the FLG4262 flight status page for this flight to view local times or setup timezone preferences in your user account.

Time Position Orientation Groundspeed Altitude Reporting Facility
EDT Latitude Longitude Course Direction KTS MPH feet Rate Location/Type
Tue 05:27:48 PM 42.2044 -76.1364 292° West 275 316 7,500  Level Cleveland Center
Tue 05:28:00 PM 42.2205 -76.3693 294° West  Level Estimated
Tue 05:28:50 PM 42.2342 -76.2347 292° West 280 322 10,100  Level Cleveland Center
Tue 05:29:00 PM 42.2815 -76.4700 309° West  Level FlightAware Approximate
Tue 05:29:52 PM 42.2675 -76.3431 293° West 310 357 11,300  Level Cleveland Center
Tue 05:30:00 PM 42.2840 -76.6002 291° West  Level Estimated
Tue 05:30:54 PM 42.3072 -76.4747 292° West 342 394 13,300  Level Cleveland Center
Tue 05:31:00 PM 42.2864 -76.7303 287° West  Level Estimated
Tue 05:31:56 PM 42.3436 -76.5978 292° West 351 404 15,100  Level Cleveland Center
Tue 05:32:58 PM 42.3831 -76.7253 293° West 363 418 16,600 1,403 Climbing Cleveland Center
Tue 05:34:00 PM 42.4197 -76.8536 291° West 367 422 18,000 1,161 Climbing Cleveland Center
Tue 05:35:02 PM 42.4586 -76.9858 292° West 376 433 19,000 1,065 Climbing Cleveland Center
Tue 05:36:04 PM 42.5047 -77.1444 292° West 378 435 20,200 968 Climbing Cleveland Center
Tue 05:37:06 PM 42.5444 -77.2814 292° West 388 447 21,000 774 Climbing Cleveland Center
Tue 05:38:08 PM 42.5847 -77.4208 291° West 397 457 21,800 816 Climbing Cleveland Center
Tue 05:39:11 PM 42.6303 -77.5783 292° West 398 458 22,700 816 Climbing Cleveland Center
Tue 05:40:13 PM 42.6700 -77.7197 291° West 400 460 23,500 774 Climbing Cleveland Center
Tue 05:41:15 PM 42.6956 -77.8619 284° West 416 479 24,300 774 Climbing Cleveland Center
Tue 05:42:17 PM 42.6983 -78.0128 271° West 403 464 25,100 774 Climbing Cleveland Center
Tue 05:43:19 PM 42.7008 -78.1658 271° West 404 465 25,900 435 Climbing Cleveland Center
Tue 05:44:21 PM 42.7036 -78.3528 271° West 413 475 26,000 48 Climbing Cleveland Center
Tue 05:45:23 PM 42.7056 -78.5128 271° West 423 487 26,000  Level Cleveland Center
Tue 05:46:25 PM 42.7081 -78.6772 271° West 435 501 26,000  Level Cleveland Center
Tue 05:47:27 PM 42.7086 -78.8392 270° West 430 495 26,000  Level Cleveland Center
Tue 05:48:29 PM 42.7103 -79.0042 271° West 437 503 26,000  Level Cleveland Center
Tue 05:49:31 PM 42.7119 -79.1683 271° West 438 504 26,000  Level Cleveland Center
Tue 05:50:34 PM 42.7119 -79.3667 270° West 439 505 26,000  Level Cleveland Center
Tue 05:51:36 PM 42.7122 -79.5328 270° West 440 506 26,000  Level Cleveland Center
Tue 05:52:38 PM 42.7114 -79.6986 270° West 439 505 26,000  Level Cleveland Center
Tue 05:53:40 PM 42.7119 -79.8639 270° West 439 505 26,000  Level Cleveland Center
Tue 05:54:42 PM 42.7089 -80.0322 269° West 434 499 26,000  Level Cleveland Center
Tue 05:55:44 PM 42.7094 -80.1994 270° West 437 503 26,000  Level Cleveland Center
Tue 05:56:46 PM 42.7078 -80.3939 269° West 438 504 26,000  Level Cleveland Center
Tue 05:57:48 PM 42.7075 -80.5617 270° West 439 505 26,000 -97 Level Cleveland Center
Tue 05:58:50 PM 42.7064 -80.7289 270° West 439 505 25,800 -581 Descending Cleveland Center
Tue 05:59:52 PM 42.7033 -80.9017 269° West 451 519 24,800 -968 Descending Cleveland Center
Tue 06:00:54 PM 42.6850 -81.0731 262° West 454 522 23,800 -968 Descending Cleveland Center
Tue 06:01:56 PM 42.6653 -81.2439 261° West 455 524 22,800 -968 Descending Cleveland Center
Tue 06:02:58 PM 42.6456 -81.4119 261° West 450 518 21,800 -1,056 Descending Cleveland Center
Tue 06:04:01 PM 42.6236 -81.6050 261° West 444 511 20,600 -960 Descending Cleveland Center
Tue 06:05:03 PM 42.6039 -81.7681 261° West 438 504 19,800 -919 Descending Cleveland Center
Tue 06:06:05 PM 42.5839 -81.9322 261° West 433 498 18,700 -1,016 Descending Cleveland Center
Tue 06:07:07 PM 42.5639 -82.0914 260° West 430 495 17,700 -894 Descending Cleveland Center
Tue 06:07:39 PM 42.5533 -82.1900 262° West 428 493 17,300 -1,355 Descending Cleveland Center
Tue 06:08:09 PM 42.5453 -82.2461 259° West 422 486 16,300 -2,372 Descending Cleveland Center
Tue 06:08:22 PM 42.5400 -82.2958 262° West 386 444 15,600 -2,323 Descending Cleveland Center
Tue 06:09:11 PM 42.5283 -82.3858 260° West 389 448 13,900 -2,557 Descending Cleveland Center
Tue 06:09:23 PM 42.5217 -82.4381 260° West 370 426 13,000 -1,839 Descending Cleveland Center
Tue 06:10:13 PM 42.5106 -82.5219 260° West 372 428 12,000 -871 Descending Cleveland Center
Tue 06:10:25 PM 42.4975 -82.5736 251° West 365 420 12,100  Climbing Cleveland Center
Tue 06:11:26 PM 42.4608 -82.6789 245° Southwest 267 307 12,000 -643 Descending Cleveland Center
Tue 06:12:17 PM 42.4272 -82.7386 233° Southwest 268 308 10,900 -1,279 Descending Cleveland Center
Tue 06:12:27 PM 42.4197 -82.7556 239° Southwest 251 289 10,700 -1,355 Descending Cleveland Center
Tue 06:13:19 PM 42.3872 -82.8117 232° Southwest 247 284 9,500 -1,355 Descending Cleveland Center
Tue 06:13:29 PM 42.3786 -82.8319 240° Southwest 243 280 9,300 -1,437 Descending Cleveland Center
Tue 06:14:30 PM 42.3558 -82.9108 249° West 239 275 7,800 -1,368 Descending Cleveland Center
Tue 06:15:23 PM 42.3761 -82.9692 295° West 241 277 6,700 -1,377 Descending Cleveland Center
Tue 06:15:31 PM 42.3875 -82.9942 302° West 239 275 6,400 -774 Descending Cleveland Center
Tue 06:16:25 PM 42.4047 -83.0656 288° West 241 277 5,900 -492 Descending Cleveland Center
Tue 06:16:32 PM 42.4064 -83.0761 282° West 219 252 5,900 -1,333 Level Cleveland Center
Tue 06:17:28 PM 42.3967 -83.1472 260° West 229 264 4,500 -1,475 Descending Cleveland Center
Tue 06:17:33 PM 42.3919 -83.1589 241° Southwest 222 255 4,400 -484 Descending Cleveland Center
Tue 06:18:30 PM 42.3661 -83.2125 237° Southwest 213 245 4,000 -387 Descending Cleveland Center
Tue 06:18:35 PM 42.3639 -83.2228 254° West 169 194 4,000 -831 Level Cleveland Center
Tue 06:19:35 PM 42.3233 -83.2594 214° Southwest 173 199 3,100 -908 Descending Cleveland Center
Tue 06:20:34 PM 42.2881 -83.2814 205° Southwest 176 203 2,200 -871 Descending Cleveland Center
Tue 06:20:37 PM 42.2814 -83.2875 214° Southwest 155 178 2,200 -774 Level Cleveland Center
Tue 06:21:36 PM 42.2531 -83.3086 209° Southwest 158 182 1,400 -787 Descending Cleveland Center
Tue 06:21:38 PM 42.2458 -83.3136 207° Southwest 140 161 1,400 -194 Level Cleveland Center
Tue 06:22:38 PM 42.2133 -83.3378 209° Southwest 151 174 1,200 -200 Descending Cleveland Center

Login

Don't have an account? Register now (free) for customized features, flight alerts, and more!